Georgetown, SC

3:09 AM EST on November 26, 2014 (GMT -0500)
NonFedAWOS GEORGETOWN SC US SAI | Change Station
CLOSE
Current Station
Personal Weather Station
Location: Georgetown, SC
Elevation: 128 ft
Nearby Weather Stations

Elev 128 ft 33.31 °N, 79.32 °W | Updated 18 hours ago

Rain
Rain
55 °F
Feels Like 55 °F
N
12
Wind Variable Wind from North
Gusts 17 mph

Today
High -- | Low -- °F
--% Chance of Precip.
Yesterday
High -- | Low -- °F
Precip. -- in
6:58 AM 5:10 PM
Waxing Crescent, 17% visible
Pressure 29.77 in
Visibility 5.0 miles
Clouds Overcast 800 ft
Dew Point 55 °F
Humidity 100%
Rainfall -999.00 in
Snow Depth Not available.
UV 0 out of 12
Pollen 1.90 out of 12
Air Quality Not available.
Flu Activity Not available.
METAR KMYR 260755Z AUTO 05003KT 5SM OVC008 18/17 A2977 RMK AO1

More Conditions Fewer Conditions

Pressure 29.77 in
Visibility 5.0 miles
Clouds Overcast 800 ft
Dew Point 55 °F
Humidity 100%
Rainfall -999.00 in
Snow Depth Not available.
UV 0 out of 12
Pollen 1.90 out of 12
Air Quality Not available.
Flu Activity Not available.
METAR KMYR 260755Z AUTO 05003KT 5SM OVC008 18/17 A2977 RMK AO1

More Conditions Fewer Conditions

10-Day Weather Forecast

Almanac

Astronomy

Nov. 26, 2014 Rise Set
Actual Time
Civil Twilight
Nautical Twilight
Astronomical Twilight
Moon
Length of Visible Light
Length of Day
Tomorrow will be .
, % of the Moon is Illuminated

Today's Extremes

State Highs State Lows

Community

WunderPhotos

Upload Photos

1,773,694 photos uploaded!

WunderBlogs® & News

Nearby

Air Quality

  Air Quality AQ Index Pollutant
Not available.

Snow Depth

Station Depth Elevation

Earthquake Activity

City Distance Mag. Time & Date
Minimum magnitude displayed is 2.5.

Coastal Water Temperatures

Place Temperature

Nearby Weather Stations